sensor_id;sensor_type;location;lat;lon;timestamp;P1;durP1;ratioP1;P2;durP2;ratioP2
6823;SDS011;58633;49.470;11.004;2022-11-04T00:01:11;16.77;;;9.52;;
6823;SDS011;58633;49.470;11.004;2022-11-04T00:03:37;16.35;;;10.02;;
6823;SDS011;58633;49.470;11.004;2022-11-04T00:06:02;16.08;;;10.10;;
6823;SDS011;58633;49.470;11.004;2022-11-04T00:08:28;14.65;;;9.55;;
6823;SDS011;58633;49.470;11.004;2022-11-04T00:10:55;15.68;;;10.07;;
6823;SDS011;58633;49.470;11.004;2022-11-04T00:13:40;17.60;;;9.68;;
6823;SDS011;58633;49.470;11.004;2022-11-04T00:16:06;16.05;;;9.65;;
6823;SDS011;58633;49.470;11.004;2022-11-04T00:18:51;13.93;;;9.60;;
6823;SDS011;58633;49.470;11.004;2022-11-04T00:21:17;13.40;;;9.18;;
6823;SDS011;58633;49.470;11.004;2022-11-04T00:24:02;20.02;;;9.57;;
6823;SDS011;58633;49.470;11.004;2022-11-04T00:26:46;17.35;;;9.90;;
6823;SDS011;58633;49.470;11.004;2022-11-04T00:29:30;18.52;;;9.63;;
6823;SDS011;58633;49.470;11.004;2022-11-04T00:31:56;14.18;;;9.27;;
6823;SDS011;58633;49.470;11.004;2022-11-04T00:34:41;15.77;;;9.25;;
6823;SDS011;58633;49.470;11.004;2022-11-04T00:37:06;17.60;;;9.82;;
6823;SDS011;58633;49.470;11.004;2022-11-04T00:39:32;13.73;;;8.30;;
6823;SDS011;58633;49.470;11.004;2022-11-04T00:41:58;11.35;;;7.53;;
6823;SDS011;58633;49.470;11.004;2022-11-04T00:44:24;12.43;;;8.18;;
6823;SDS011;58633;49.470;11.004;2022-11-04T00:46:50;10.23;;;7.07;;
6823;SDS011;58633;49.470;11.004;2022-11-04T00:49:16;11.02;;;6.90;;
6823;SDS011;58633;49.470;11.004;2022-11-04T00:51:42;10.15;;;6.40;;
6823;SDS011;58633;49.470;11.004;2022-11-04T00:54:07;9.45;;;5.60;;
6823;SDS011;58633;49.470;11.004;2022-11-04T00:56:37;7.32;;;5.40;;
6823;SDS011;58633;49.470;11.004;2022-11-04T00:59:03;6.85;;;4.95;;
6823;SDS011;58633;49.470;11.004;2022-11-04T01:01:28;8.00;;;5.55;;
6823;SDS011;58633;49.470;11.004;2022-11-04T01:03:54;9.55;;;5.10;;
6823;SDS011;58633;49.470;11.004;2022-11-04T01:06:21;8.57;;;5.40;;
6823;SDS011;58633;49.470;11.004;2022-11-04T01:08:48;7.30;;;4.90;;
6823;SDS011;58633;49.470;11.004;2022-11-04T01:11:20;8.02;;;4.78;;
6823;SDS011;58633;49.470;11.004;2022-11-04T01:13:49;5.22;;;4.15;;
6823;SDS011;58633;49.470;11.004;2022-11-04T01:16:15;7.85;;;4.65;;
6823;SDS011;58633;49.470;11.004;2022-11-04T01:18:41;6.07;;;4.45;;
6823;SDS011;58633;49.470;11.004;2022-11-04T01:21:08;5.32;;;4.20;;
6823;SDS011;58633;49.470;11.004;2022-11-04T01:23:37;6.53;;;4.07;;
6823;SDS011;58633;49.470;11.004;2022-11-04T01:26:04;5.30;;;3.90;;
6823;SDS011;58633;49.470;11.004;2022-11-04T01:28:37;5.57;;;3.90;;
6823;SDS011;58633;49.470;11.004;2022-11-04T01:31:10;5.15;;;3.97;;
6823;SDS011;58633;49.470;11.004;2022-11-04T01:33:40;5.35;;;3.90;;
6823;SDS011;58633;49.470;11.004;2022-11-04T01:36:06;4.03;;;3.63;;
6823;SDS011;58633;49.470;11.004;2022-11-04T01:38:33;4.20;;;3.20;;
6823;SDS011;58633;49.470;11.004;2022-11-04T01:40:58;4.90;;;3.30;;
6823;SDS011;58633;49.470;11.004;2022-11-04T01:46:12;3.10;;;2.80;;
6823;SDS011;58633;49.470;11.004;2022-11-04T01:48:46;3.88;;;3.00;;
6823;SDS011;58633;49.470;11.004;2022-11-04T01:51:11;3.75;;;2.72;;
6823;SDS011;58633;49.470;11.004;2022-11-04T01:53:38;2.63;;;2.35;;
6823;SDS011;58633;49.470;11.004;2022-11-04T01:56:06;3.60;;;2.33;;
6823;SDS011;58633;49.470;11.004;2022-11-04T01:58:39;4.07;;;2.30;;
6823;SDS011;58633;49.470;11.004;2022-11-04T02:01:08;2.60;;;2.25;;
6823;SDS011;58633;49.470;11.004;2022-11-04T02:03:49;3.85;;;2.17;;
6823;SDS011;58633;49.470;11.004;2022-11-04T02:06:17;2.78;;;2.22;;
6823;SDS011;58633;49.470;11.004;2022-11-04T02:08:44;2.28;;;2.08;;
6823;SDS011;58633;49.470;11.004;2022-11-04T02:11:10;3.13;;;2.42;;
6823;SDS011;58633;49.470;11.004;2022-11-04T02:13:56;2.00;;;1.83;;
6823;SDS011;58633;49.470;11.004;2022-11-04T02:16:29;2.85;;;2.15;;
6823;SDS011;58633;49.470;11.004;2022-11-04T02:19:08;3.40;;;2.00;;
6823;SDS011;58633;49.470;11.004;2022-11-04T02:24:28;2.15;;;1.67;;
6823;SDS011;58633;49.470;11.004;2022-11-04T02:27:32;2.20;;;2.00;;
6823;SDS011;58633;49.470;11.004;2022-11-04T02:30:13;3.85;;;1.80;;
6823;SDS011;58633;49.470;11.004;2022-11-04T02:33:00;1.83;;;1.58;;
6823;SDS011;58633;49.470;11.004;2022-11-04T02:35:56;1.63;;;1.52;;
6823;SDS011;58633;49.470;11.004;2022-11-04T02:43:45;2.00;;;1.70;;
6823;SDS011;58633;49.470;11.004;2022-11-04T02:48:45;2.40;;;1.90;;
6823;SDS011;58633;49.470;11.004;2022-11-04T02:51:30;2.55;;;1.90;;
6823;SDS011;58633;49.470;11.004;2022-11-04T02:54:03;3.28;;;2.05;;
6823;SDS011;58633;49.470;11.004;2022-11-04T02:56:34;2.30;;;1.90;;
6823;SDS011;58633;49.470;11.004;2022-11-04T02:59:06;3.55;;;2.08;;
6823;SDS011;58633;49.470;11.004;2022-11-04T03:01:38;3.33;;;2.25;;
6823;SDS011;58633;49.470;11.004;2022-11-04T03:04:13;4.63;;;2.65;;
6823;SDS011;58633;49.470;11.004;2022-11-04T03:06:43;3.03;;;2.03;;
6823;SDS011;58633;49.470;11.004;2022-11-04T03:09:12;5.57;;;2.20;;
6823;SDS011;58633;49.470;11.004;2022-11-04T03:11:40;2.33;;;2.03;;
6823;SDS011;58633;49.470;11.004;2022-11-04T03:14:11;3.38;;;2.20;;
6823;SDS011;58633;49.470;11.004;2022-11-04T03:16:44;2.70;;;1.98;;
6823;SDS011;58633;49.470;11.004;2022-11-04T03:19:22;4.55;;;2.50;;
6823;SDS011;58633;49.470;11.004;2022-11-04T03:22:03;1.88;;;1.60;;
6823;SDS011;58633;49.470;11.004;2022-11-04T03:24:30;2.85;;;2.00;;
6823;SDS011;58633;49.470;11.004;2022-11-04T03:27:02;3.85;;;1.92;;
6823;SDS011;58633;49.470;11.004;2022-11-04T03:32:44;4.43;;;2.50;;
6823;SDS011;58633;49.470;11.004;2022-11-04T03:35:30;2.13;;;1.70;;
6823;SDS011;58633;49.470;11.004;2022-11-04T03:37:57;1.58;;;1.48;;
6823;SDS011;58633;49.470;11.004;2022-11-04T03:40:23;1.63;;;1.45;;
6823;SDS011;58633;49.470;11.004;2022-11-04T03:42:59;1.75;;;1.33;;
6823;SDS011;58633;49.470;11.004;2022-11-04T03:45:44;1.75;;;1.30;;
6823;SDS011;58633;49.470;11.004;2022-11-04T03:48:10;1.92;;;1.25;;
6823;SDS011;58633;49.470;11.004;2022-11-04T03:50:43;2.75;;;1.45;;
6823;SDS011;58633;49.470;11.004;2022-11-04T03:53:14;2.17;;;1.33;;
6823;SDS011;58633;49.470;11.004;2022-11-04T04:01:06;1.30;;;1.20;;
6823;SDS011;58633;49.470;11.004;2022-11-04T04:03:45;1.25;;;1.15;;
6823;SDS011;58633;49.470;11.004;2022-11-04T04:06:24;1.40;;;1.30;;
6823;SDS011;58633;49.470;11.004;2022-11-04T04:08:54;1.40;;;1.30;;
6823;SDS011;58633;49.470;11.004;2022-11-04T04:14:14;1.80;;;1.10;;
6823;SDS011;58633;49.470;11.004;2022-11-04T04:17:02;1.58;;;1.30;;
6823;SDS011;58633;49.470;11.004;2022-11-04T04:19:31;1.10;;;1.00;;
6823;SDS011;58633;49.470;11.004;2022-11-04T04:22:00;1.20;;;1.10;;
6823;SDS011;58633;49.470;11.004;2022-11-04T04:24:33;1.23;;;1.13;;
6823;SDS011;58633;49.470;11.004;2022-11-04T04:27:20;1.38;;;1.17;;
6823;SDS011;58633;49.470;11.004;2022-11-04T04:30:06;1.30;;;1.00;;
6823;SDS011;58633;49.470;11.004;2022-11-04T04:32:36;1.00;;;1.00;;
6823;SDS011;58633;49.470;11.004;2022-11-04T04:35:06;1.23;;;1.00;;
6823;SDS011;58633;49.470;11.004;2022-11-04T04:37:51;1.17;;;1.10;;
6823;SDS011;58633;49.470;11.004;2022-11-04T04:40:20;1.90;;;1.20;;
6823;SDS011;58633;49.470;11.004;2022-11-04T04:43:13;1.48;;;1.20;;
6823;SDS011;58633;49.470;11.004;2022-11-04T04:45:58;1.10;;;1.10;;
6823;SDS011;58633;49.470;11.004;2022-11-04T04:48:25;1.50;;;1.40;;
6823;SDS011;58633;49.470;11.004;2022-11-04T04:50:51;1.30;;;1.20;;
6823;SDS011;58633;49.470;11.004;2022-11-04T04:53:20;1.30;;;1.20;;
6823;SDS011;58633;49.470;11.004;2022-11-04T04:55:47;1.65;;;1.40;;
6823;SDS011;58633;49.470;11.004;2022-11-04T04:58:13;1.42;;;1.33;;
6823;SDS011;58633;49.470;11.004;2022-11-04T05:00:39;1.58;;;1.20;;
6823;SDS011;58633;49.470;11.004;2022-11-04T05:03:05;2.05;;;1.20;;
6823;SDS011;58633;49.470;11.004;2022-11-04T05:05:31;1.08;;;1.08;;
6823;SDS011;58633;49.470;11.004;2022-11-04T05:08:06;1.63;;;1.35;;
6823;SDS011;58633;49.470;11.004;2022-11-04T05:10:32;1.55;;;1.33;;
6823;SDS011;58633;49.470;11.004;2022-11-04T05:12:58;1.65;;;1.30;;
6823;SDS011;58633;49.470;11.004;2022-11-04T05:15:43;2.50;;;1.40;;
6823;SDS011;58633;49.470;11.004;2022-11-04T05:18:09;1.40;;;1.20;;
6823;SDS011;58633;49.470;11.004;2022-11-04T05:20:35;1.45;;;1.35;;
6823;SDS011;58633;49.470;11.004;2022-11-04T05:23:04;1.70;;;1.60;;
6823;SDS011;58633;49.470;11.004;2022-11-04T05:25:31;2.35;;;1.55;;
6823;SDS011;58633;49.470;11.004;2022-11-04T05:28:00;1.60;;;1.50;;
6823;SDS011;58633;49.470;11.004;2022-11-04T05:30:26;1.73;;;1.50;;
6823;SDS011;58633;49.470;11.004;2022-11-04T05:32:52;1.85;;;1.65;;
6823;SDS011;58633;49.470;11.004;2022-11-04T05:35:18;3.28;;;1.80;;
6823;SDS011;58633;49.470;11.004;2022-11-04T05:37:44;4.65;;;1.65;;
6823;SDS011;58633;49.470;11.004;2022-11-04T05:40:10;4.22;;;1.55;;
6823;SDS011;58633;49.470;11.004;2022-11-04T05:42:36;2.80;;;1.52;;
6823;SDS011;58633;49.470;11.004;2022-11-04T05:45:03;1.48;;;1.38;;
6823;SDS011;58633;49.470;11.004;2022-11-04T05:47:29;2.30;;;1.60;;
6823;SDS011;58633;49.470;11.004;2022-11-04T05:49:54;1.73;;;1.60;;
6823;SDS011;58633;49.470;11.004;2022-11-04T05:52:20;1.90;;;1.80;;
6823;SDS011;58633;49.470;11.004;2022-11-04T05:54:46;3.97;;;1.70;;
6823;SDS011;58633;49.470;11.004;2022-11-04T05:57:12;2.38;;;1.75;;
6823;SDS011;58633;49.470;11.004;2022-11-04T05:59:38;2.38;;;1.70;;
6823;SDS011;58633;49.470;11.004;2022-11-04T06:02:04;4.03;;;1.63;;
6823;SDS011;58633;49.470;11.004;2022-11-04T06:04:30;2.55;;;1.50;;
6823;SDS011;58633;49.470;11.004;2022-11-04T06:06:56;2.85;;;1.70;;
6823;SDS011;58633;49.470;11.004;2022-11-04T06:09:21;2.20;;;1.65;;
6823;SDS011;58633;49.470;11.004;2022-11-04T06:12:03;2.65;;;1.67;;
6823;SDS011;58633;49.470;11.004;2022-11-04T06:14:34;2.58;;;1.73;;
6823;SDS011;58633;49.470;11.004;2022-11-04T06:17:01;2.38;;;1.77;;
6823;SDS011;58633;49.470;11.004;2022-11-04T06:19:26;2.97;;;1.80;;
6823;SDS011;58633;49.470;11.004;2022-11-04T06:21:52;2.63;;;1.73;;
6823;SDS011;58633;49.470;11.004;2022-11-04T06:24:18;2.25;;;1.70;;
6823;SDS011;58633;49.470;11.004;2022-11-04T06:26:44;4.80;;;2.13;;
6823;SDS011;58633;49.470;11.004;2022-11-04T06:29:10;3.42;;;1.60;;
6823;SDS011;58633;49.470;11.004;2022-11-04T06:31:37;3.65;;;2.00;;
6823;SDS011;58633;49.470;11.004;2022-11-04T06:34:03;4.85;;;1.90;;
6823;SDS011;58633;49.470;11.004;2022-11-04T06:36:29;6.32;;;2.03;;
6823;SDS011;58633;49.470;11.004;2022-11-04T06:38:55;6.60;;;2.10;;
6823;SDS011;58633;49.470;11.004;2022-11-04T06:41:20;4.25;;;1.80;;
6823;SDS011;58633;49.470;11.004;2022-11-04T06:43:46;3.42;;;2.10;;
6823;SDS011;58633;49.470;11.004;2022-11-04T06:48:53;2.08;;;1.92;;
6823;SDS011;58633;49.470;11.004;2022-11-04T06:51:19;4.40;;;1.90;;
6823;SDS011;58633;49.470;11.004;2022-11-04T06:53:45;7.47;;;2.03;;
6823;SDS011;58633;49.470;11.004;2022-11-04T06:56:10;2.88;;;2.05;;
6823;SDS011;58633;49.470;11.004;2022-11-04T06:58:36;3.95;;;1.90;;
6823;SDS011;58633;49.470;11.004;2022-11-04T07:01:01;2.30;;;2.10;;
6823;SDS011;58633;49.470;11.004;2022-11-04T07:03:28;2.33;;;1.77;;
6823;SDS011;58633;49.470;11.004;2022-11-04T07:05:54;4.03;;;2.08;;
6823;SDS011;58633;49.470;11.004;2022-11-04T07:08:19;4.85;;;1.98;;
6823;SDS011;58633;49.470;11.004;2022-11-04T07:10:45;3.92;;;1.80;;
6823;SDS011;58633;49.470;11.004;2022-11-04T07:13:11;2.15;;;1.90;;
6823;SDS011;58633;49.470;11.004;2022-11-04T07:15:38;3.78;;;2.10;;
6823;SDS011;58633;49.470;11.004;2022-11-04T07:18:04;3.50;;;2.08;;
6823;SDS011;58633;49.470;11.004;2022-11-04T07:20:31;2.05;;;1.70;;
6823;SDS011;58633;49.470;11.004;2022-11-04T07:22:58;2.40;;;2.15;;
6823;SDS011;58633;49.470;11.004;2022-11-04T07:25:25;4.53;;;1.77;;
6823;SDS011;58633;49.470;11.004;2022-11-04T07:27:50;2.17;;;1.70;;
6823;SDS011;58633;49.470;11.004;2022-11-04T07:30:17;2.65;;;1.75;;
6823;SDS011;58633;49.470;11.004;2022-11-04T07:32:44;2.10;;;1.92;;
6823;SDS011;58633;49.470;11.004;2022-11-04T07:35:10;3.38;;;1.92;;
6823;SDS011;58633;49.470;11.004;2022-11-04T07:37:36;3.35;;;2.03;;
6823;SDS011;58633;49.470;11.004;2022-11-04T07:40:04;3.72;;;2.00;;
6823;SDS011;58633;49.470;11.004;2022-11-04T07:42:30;3.00;;;2.10;;
6823;SDS011;58633;49.470;11.004;2022-11-04T07:44:56;3.55;;;1.85;;
6823;SDS011;58633;49.470;11.004;2022-11-04T07:47:21;3.70;;;1.85;;
6823;SDS011;58633;49.470;11.004;2022-11-04T07:49:47;4.18;;;1.90;;
6823;SDS011;58633;49.470;11.004;2022-11-04T07:52:13;4.65;;;1.98;;
6823;SDS011;58633;49.470;11.004;2022-11-04T07:54:40;3.15;;;1.50;;
6823;SDS011;58633;49.470;11.004;2022-11-04T07:57:06;5.05;;;2.17;;
6823;SDS011;58633;49.470;11.004;2022-11-04T07:59:32;3.58;;;1.92;;
6823;SDS011;58633;49.470;11.004;2022-11-04T08:01:57;2.75;;;2.03;;
6823;SDS011;58633;49.470;11.004;2022-11-04T08:04:23;4.45;;;1.95;;
6823;SDS011;58633;49.470;11.004;2022-11-04T08:06:49;3.55;;;2.00;;
6823;SDS011;58633;49.470;11.004;2022-11-04T08:09:15;6.60;;;2.30;;
6823;SDS011;58633;49.470;11.004;2022-11-04T08:11:42;5.07;;;2.10;;
6823;SDS011;58633;49.470;11.004;2022-11-04T08:14:08;3.00;;;1.55;;
6823;SDS011;58633;49.470;11.004;2022-11-04T08:16:34;5.40;;;1.92;;
6823;SDS011;58633;49.470;11.004;2022-11-04T08:19:00;2.38;;;1.63;;
6823;SDS011;58633;49.470;11.004;2022-11-04T08:21:27;2.85;;;2.00;;
6823;SDS011;58633;49.470;11.004;2022-11-04T08:23:54;3.63;;;1.73;;
6823;SDS011;58633;49.470;11.004;2022-11-04T08:26:20;3.50;;;1.60;;
6823;SDS011;58633;49.470;11.004;2022-11-04T08:28:47;3.17;;;1.75;;
6823;SDS011;58633;49.470;11.004;2022-11-04T08:31:15;4.13;;;2.15;;
6823;SDS011;58633;49.470;11.004;2022-11-04T08:33:47;3.05;;;1.80;;
6823;SDS011;58633;49.470;11.004;2022-11-04T08:36:16;7.50;;;1.80;;
6823;SDS011;58633;49.470;11.004;2022-11-04T08:38:47;4.28;;;1.88;;
6823;SDS011;58633;49.470;11.004;2022-11-04T08:41:14;3.47;;;1.88;;
6823;SDS011;58633;49.470;11.004;2022-11-04T08:43:41;3.70;;;1.50;;
6823;SDS011;58633;49.470;11.004;2022-11-04T08:46:08;1.58;;;1.35;;
6823;SDS011;58633;49.470;11.004;2022-11-04T08:48:35;6.70;;;1.90;;
6823;SDS011;58633;49.470;11.004;2022-11-04T08:51:02;6.60;;;1.90;;
6823;SDS011;58633;49.470;11.004;2022-11-04T08:53:30;5.22;;;1.90;;
6823;SDS011;58633;49.470;11.004;2022-11-04T08:55:55;2.50;;;1.70;;
6823;SDS011;58633;49.470;11.004;2022-11-04T08:58:22;2.17;;;1.50;;
6823;SDS011;58633;49.470;11.004;2022-11-04T09:00:48;5.20;;;1.90;;
6823;SDS011;58633;49.470;11.004;2022-11-04T09:03:16;7.70;;;1.80;;
6823;SDS011;58633;49.470;11.004;2022-11-04T09:05:42;8.50;;;2.05;;
6823;SDS011;58633;49.470;11.004;2022-11-04T09:08:10;3.75;;;1.70;;
6823;SDS011;58633;49.470;11.004;2022-11-04T09:10:39;5.47;;;1.80;;
6823;SDS011;58633;49.470;11.004;2022-11-04T09:13:06;4.13;;;1.70;;
6823;SDS011;58633;49.470;11.004;2022-11-04T09:15:34;2.33;;;1.48;;
6823;SDS011;58633;49.470;11.004;2022-11-04T09:18:00;3.53;;;1.80;;
6823;SDS011;58633;49.470;11.004;2022-11-04T09:20:26;6.72;;;1.77;;
6823;SDS011;58633;49.470;11.004;2022-11-04T09:22:52;2.70;;;1.63;;
6823;SDS011;58633;49.470;11.004;2022-11-04T09:25:18;6.93;;;1.77;;
6823;SDS011;58633;49.470;11.004;2022-11-04T09:27:43;2.97;;;1.70;;
6823;SDS011;58633;49.470;11.004;2022-11-04T09:30:10;6.35;;;1.83;;
6823;SDS011;58633;49.470;11.004;2022-11-04T09:32:36;6.15;;;1.73;;
6823;SDS011;58633;49.470;11.004;2022-11-04T09:35:02;6.35;;;1.90;;
6823;SDS011;58633;49.470;11.004;2022-11-04T09:37:27;2.95;;;1.80;;
6823;SDS011;58633;49.470;11.004;2022-11-04T09:39:54;3.88;;;1.58;;
6823;SDS011;58633;49.470;11.004;2022-11-04T09:45:00;4.25;;;1.83;;
6823;SDS011;58633;49.470;11.004;2022-11-04T09:47:28;3.33;;;2.03;;
6823;SDS011;58633;49.470;11.004;2022-11-04T09:49:56;5.00;;;1.60;;
6823;SDS011;58633;49.470;11.004;2022-11-04T09:52:24;3.45;;;1.60;;
6823;SDS011;58633;49.470;11.004;2022-11-04T09:55:09;4.25;;;1.92;;
6823;SDS011;58633;49.470;11.004;2022-11-04T09:57:58;3.67;;;1.50;;
6823;SDS011;58633;49.470;11.004;2022-11-04T10:00:25;5.55;;;1.50;;
6823;SDS011;58633;49.470;11.004;2022-11-04T10:05:53;6.63;;;1.50;;
6823;SDS011;58633;49.470;11.004;2022-11-04T10:13:29;5.07;;;1.60;;
6823;SDS011;58633;49.470;11.004;2022-11-04T10:16:29;3.85;;;1.73;;
6823;SDS011;58633;49.470;11.004;2022-11-04T10:19:16;4.32;;;1.48;;
6823;SDS011;58633;49.470;11.004;2022-11-04T10:22:20;3.67;;;1.30;;
6823;SDS011;58633;49.470;11.004;2022-11-04T10:25:00;5.38;;;1.58;;
6823;SDS011;58633;49.470;11.004;2022-11-04T10:27:28;2.35;;;1.40;;
6823;SDS011;58633;49.470;11.004;2022-11-04T10:30:00;5.68;;;1.80;;
6823;SDS011;58633;49.470;11.004;2022-11-04T10:35:16;6.63;;;1.80;;
6823;SDS011;58633;49.470;11.004;2022-11-04T10:37:45;4.72;;;1.40;;
6823;SDS011;58633;49.470;11.004;2022-11-04T10:42:45;4.93;;;1.60;;
6823;SDS011;58633;49.470;11.004;2022-11-04T10:45:11;2.72;;;1.77;;
6823;SDS011;58633;49.470;11.004;2022-11-04T10:50:29;4.28;;;1.55;;
6823;SDS011;58633;49.470;11.004;2022-11-04T10:53:14;4.68;;;1.40;;
6823;SDS011;58633;49.470;11.004;2022-11-04T10:58:30;5.75;;;1.88;;
6823;SDS011;58633;49.470;11.004;2022-11-04T11:00:59;4.20;;;2.20;;
6823;SDS011;58633;49.470;11.004;2022-11-04T11:03:47;3.38;;;1.50;;
6823;SDS011;58633;49.470;11.004;2022-11-04T11:08:48;4.97;;;1.80;;
6823;SDS011;58633;49.470;11.004;2022-11-04T11:11:14;4.88;;;1.73;;
6823;SDS011;58633;49.470;11.004;2022-11-04T11:13:44;3.10;;;1.27;;
6823;SDS011;58633;49.470;11.004;2022-11-04T11:16:24;3.75;;;1.73;;
6823;SDS011;58633;49.470;11.004;2022-11-04T11:19:07;3.30;;;1.40;;
6823;SDS011;58633;49.470;11.004;2022-11-04T11:21:42;3.63;;;1.55;;
6823;SDS011;58633;49.470;11.004;2022-11-04T11:24:34;3.92;;;1.40;;
6823;SDS011;58633;49.470;11.004;2022-11-04T11:27:00;5.50;;;1.50;;
6823;SDS011;58633;49.470;11.004;2022-11-04T11:29:31;4.07;;;1.55;;
6823;SDS011;58633;49.470;11.004;2022-11-04T11:32:25;2.88;;;1.13;;
6823;SDS011;58633;49.470;11.004;2022-11-04T11:34:52;3.88;;;1.77;;
6823;SDS011;58633;49.470;11.004;2022-11-04T11:37:19;6.47;;;1.67;;
6823;SDS011;58633;49.470;11.004;2022-11-04T11:39:47;3.65;;;1.70;;
6823;SDS011;58633;49.470;11.004;2022-11-04T11:42:14;7.63;;;1.92;;
6823;SDS011;58633;49.470;11.004;2022-11-04T11:44:49;4.45;;;1.20;;
6823;SDS011;58633;49.470;11.004;2022-11-04T11:47:19;2.28;;;1.40;;
6823;SDS011;58633;49.470;11.004;2022-11-04T11:49:45;8.40;;;1.55;;
6823;SDS011;58633;49.470;11.004;2022-11-04T11:52:29;4.32;;;1.20;;
6823;SDS011;58633;49.470;11.004;2022-11-04T11:55:05;2.75;;;1.30;;
6823;SDS011;58633;49.470;11.004;2022-11-04T12:00:09;3.17;;;1.42;;
6823;SDS011;58633;49.470;11.004;2022-11-04T12:02:40;6.55;;;1.48;;
6823;SDS011;58633;49.470;11.004;2022-11-04T12:05:12;2.10;;;1.30;;
6823;SDS011;58633;49.470;11.004;2022-11-04T12:07:44;4.40;;;1.52;;
6823;SDS011;58633;49.470;11.004;2022-11-04T12:12:55;3.22;;;1.50;;
6823;SDS011;58633;49.470;11.004;2022-11-04T12:21:12;3.38;;;1.60;;
6823;SDS011;58633;49.470;11.004;2022-11-04T12:34:06;3.45;;;1.27;;
6823;SDS011;58633;49.470;11.004;2022-11-04T12:36:52;5.22;;;1.40;;
6823;SDS011;58633;49.470;11.004;2022-11-04T12:42:43;3.35;;;1.50;;
6823;SDS011;58633;49.470;11.004;2022-11-04T12:57:44;5.32;;;1.48;;
6823;SDS011;58633;49.470;11.004;2022-11-04T13:00:23;2.28;;;1.35;;
6823;SDS011;58633;49.470;11.004;2022-11-04T13:05:36;7.13;;;1.60;;
6823;SDS011;58633;49.470;11.004;2022-11-04T13:08:18;4.78;;;1.40;;
6823;SDS011;58633;49.470;11.004;2022-11-04T13:13:30;5.38;;;1.52;;
6823;SDS011;58633;49.470;11.004;2022-11-04T13:16:01;3.72;;;1.17;;
6823;SDS011;58633;49.470;11.004;2022-11-04T13:18:31;7.65;;;1.63;;
6823;SDS011;58633;49.470;11.004;2022-11-04T13:21:03;4.35;;;1.20;;
6823;SDS011;58633;49.470;11.004;2022-11-04T13:23:36;2.25;;;1.27;;
6823;SDS011;58633;49.470;11.004;2022-11-04T13:26:09;4.10;;;1.20;;
6823;SDS011;58633;49.470;11.004;2022-11-04T13:28:38;2.63;;;1.38;;
6823;SDS011;58633;49.470;11.004;2022-11-04T13:39:25;3.85;;;1.05;;
6823;SDS011;58633;49.470;11.004;2022-11-04T13:44:39;5.55;;;1.20;;
6823;SDS011;58633;49.470;11.004;2022-11-04T13:47:15;3.55;;;1.30;;
6823;SDS011;58633;49.470;11.004;2022-11-04T13:49:47;3.30;;;1.13;;
6823;SDS011;58633;49.470;11.004;2022-11-04T13:52:16;3.28;;;1.30;;
6823;SDS011;58633;49.470;11.004;2022-11-04T13:54:44;3.38;;;1.55;;
6823;SDS011;58633;49.470;11.004;2022-11-04T13:57:14;3.20;;;1.50;;
6823;SDS011;58633;49.470;11.004;2022-11-04T14:00:04;3.22;;;1.23;;
6823;SDS011;58633;49.470;11.004;2022-11-04T14:02:50;5.40;;;1.30;;
6823;SDS011;58633;49.470;11.004;2022-11-04T14:18:35;4.28;;;1.60;;
6823;SDS011;58633;49.470;11.004;2022-11-04T14:21:05;3.25;;;1.40;;
6823;SDS011;58633;49.470;11.004;2022-11-04T14:23:32;3.78;;;1.58;;
6823;SDS011;58633;49.470;11.004;2022-11-04T14:26:01;5.00;;;2.08;;
6823;SDS011;58633;49.470;11.004;2022-11-04T14:28:29;4.70;;;1.80;;
6823;SDS011;58633;49.470;11.004;2022-11-04T14:30:57;7.43;;;3.17;;
6823;SDS011;58633;49.470;11.004;2022-11-04T14:38:41;3.22;;;1.58;;
6823;SDS011;58633;49.470;11.004;2022-11-04T14:41:14;5.18;;;2.03;;
6823;SDS011;58633;49.470;11.004;2022-11-04T14:43:56;3.80;;;1.80;;
6823;SDS011;58633;49.470;11.004;2022-11-04T14:46:24;7.90;;;3.13;;
6823;SDS011;58633;49.470;11.004;2022-11-04T14:48:55;8.05;;;2.10;;
6823;SDS011;58633;49.470;11.004;2022-11-04T14:51:27;10.48;;;5.18;;
6823;SDS011;58633;49.470;11.004;2022-11-04T14:54:04;6.13;;;3.63;;
6823;SDS011;58633;49.470;11.004;2022-11-04T14:56:43;7.20;;;2.67;;
6823;SDS011;58633;49.470;11.004;2022-11-04T14:59:16;3.70;;;1.98;;
6823;SDS011;58633;49.470;11.004;2022-11-04T15:01:53;9.50;;;3.13;;
6823;SDS011;58633;49.470;11.004;2022-11-04T15:06:56;4.72;;;1.63;;
6823;SDS011;58633;49.470;11.004;2022-11-04T15:09:23;5.20;;;1.95;;
6823;SDS011;58633;49.470;11.004;2022-11-04T15:12:05;4.85;;;2.95;;
6823;SDS011;58633;49.470;11.004;2022-11-04T15:14:54;7.05;;;2.45;;
6823;SDS011;58633;49.470;11.004;2022-11-04T15:17:21;6.15;;;3.13;;
6823;SDS011;58633;49.470;11.004;2022-11-04T15:19:52;6.40;;;4.22;;
6823;SDS011;58633;49.470;11.004;2022-11-04T15:22:20;4.57;;;1.73;;
6823;SDS011;58633;49.470;11.004;2022-11-04T15:24:48;5.28;;;2.00;;
6823;SDS011;58633;49.470;11.004;2022-11-04T15:27:17;8.02;;;3.28;;
6823;SDS011;58633;49.470;11.004;2022-11-04T15:29:56;5.38;;;2.50;;
6823;SDS011;58633;49.470;11.004;2022-11-04T15:32:24;17.38;;;6.25;;
6823;SDS011;58633;49.470;11.004;2022-11-04T15:34:50;15.63;;;5.38;;
6823;SDS011;58633;49.470;11.004;2022-11-04T15:37:18;20.30;;;9.75;;
6823;SDS011;58633;49.470;11.004;2022-11-04T15:39:46;16.05;;;7.82;;
6823;SDS011;58633;49.470;11.004;2022-11-04T15:42:23;14.00;;;6.13;;
6823;SDS011;58633;49.470;11.004;2022-11-04T15:45:00;8.57;;;4.47;;
6823;SDS011;58633;49.470;11.004;2022-11-04T15:47:41;6.68;;;2.30;;
6823;SDS011;58633;49.470;11.004;2022-11-04T15:50:14;12.43;;;3.13;;
6823;SDS011;58633;49.470;11.004;2022-11-04T15:52:52;5.07;;;2.13;;
6823;SDS011;58633;49.470;11.004;2022-11-04T15:55:20;4.38;;;2.38;;
6823;SDS011;58633;49.470;11.004;2022-11-04T15:57:48;4.28;;;2.20;;
6823;SDS011;58633;49.470;11.004;2022-11-04T16:02:51;9.55;;;3.05;;
6823;SDS011;58633;49.470;11.004;2022-11-04T16:05:27;3.28;;;2.30;;
6823;SDS011;58633;49.470;11.004;2022-11-04T16:10:46;5.97;;;1.95;;
6823;SDS011;58633;49.470;11.004;2022-11-04T16:18:34;8.88;;;3.55;;
6823;SDS011;58633;49.470;11.004;2022-11-04T16:21:11;8.38;;;3.92;;
6823;SDS011;58633;49.470;11.004;2022-11-04T16:24:19;4.40;;;2.80;;
6823;SDS011;58633;49.470;11.004;2022-11-04T16:26:46;6.75;;;2.90;;
6823;SDS011;58633;49.470;11.004;2022-11-04T16:29:22;5.30;;;3.70;;
6823;SDS011;58633;49.470;11.004;2022-11-04T16:34:42;4.80;;;2.58;;
6823;SDS011;58633;49.470;11.004;2022-11-04T16:37:09;4.75;;;2.65;;
6823;SDS011;58633;49.470;11.004;2022-11-04T16:39:36;6.20;;;2.78;;
6823;SDS011;58633;49.470;11.004;2022-11-04T16:42:02;6.40;;;2.50;;
6823;SDS011;58633;49.470;11.004;2022-11-04T16:44:28;5.05;;;2.60;;
6823;SDS011;58633;49.470;11.004;2022-11-04T16:46:54;3.35;;;2.58;;
6823;SDS011;58633;49.470;11.004;2022-11-04T16:49:21;6.50;;;2.85;;
6823;SDS011;58633;49.470;11.004;2022-11-04T16:51:47;7.60;;;3.50;;
6823;SDS011;58633;49.470;11.004;2022-11-04T16:54:21;6.05;;;3.08;;
6823;SDS011;58633;49.470;11.004;2022-11-04T16:56:47;7.50;;;3.80;;
6823;SDS011;58633;49.470;11.004;2022-11-04T16:59:13;7.45;;;3.40;;
6823;SDS011;58633;49.470;11.004;2022-11-04T17:01:39;6.47;;;3.50;;
6823;SDS011;58633;49.470;11.004;2022-11-04T17:04:05;6.38;;;3.53;;
6823;SDS011;58633;49.470;11.004;2022-11-04T17:06:32;9.20;;;4.30;;
6823;SDS011;58633;49.470;11.004;2022-11-04T17:08:58;7.43;;;3.63;;
6823;SDS011;58633;49.470;11.004;2022-11-04T17:11:25;6.43;;;3.00;;
6823;SDS011;58633;49.470;11.004;2022-11-04T17:13:53;10.05;;;4.10;;
6823;SDS011;58633;49.470;11.004;2022-11-04T17:16:19;9.80;;;4.10;;
6823;SDS011;58633;49.470;11.004;2022-11-04T17:18:45;9.07;;;4.75;;
6823;SDS011;58633;49.470;11.004;2022-11-04T17:21:12;10.63;;;4.93;;
6823;SDS011;58633;49.470;11.004;2022-11-04T17:23:41;7.45;;;4.00;;
6823;SDS011;58633;49.470;11.004;2022-11-04T17:26:08;9.77;;;5.32;;